Pendaries, New Mexico
Current Conditions -  °F | °C
As of 6:53 PM on Friday 21 Nov 2014 (Local Time) from KLVS Reporting Station
Clear Clear  
Wind Chill:   Ceiling: Unl
Heat Index:   Visibility: 10mi
Dew Point: -7°   Wind: 8mph
Humidity: 46%   Direction: 220°SW
Pressure: 30.03"   Gusts: NA
Location:  35.8214°N, 105.333°W
Report Text: KLVS 220153Z AUTO 22007KT 10SM CLR 04/M07 A3003 RMK AO2 SLP151 T00391067
Loading
Personal Weather Stations






























Interactive Weather Map New forecast layout! Learn more

10-Day Weather Forecast

Advertisements
Track Severe Weather on mobile